createdAt,value
2018-10-07T00:01:12.981Z,11.57
2018-10-07T00:03:47.453Z,10.57
2018-10-07T00:06:22.020Z,10.23
2018-10-07T00:08:56.851Z,9.73
2018-10-07T00:11:31.278Z,10.57
2018-10-07T00:14:05.401Z,10.47
2018-10-07T00:16:40.416Z,11.17
2018-10-07T00:19:15.161Z,12.97
2018-10-07T00:21:49.042Z,13.90
2018-10-07T00:24:23.751Z,10.90
2018-10-07T00:26:59.030Z,10.80
2018-10-07T00:29:33.335Z,11.40
2018-10-07T00:32:14.008Z,10.40
2018-10-07T00:34:47.991Z,10.87
2018-10-07T00:37:22.113Z,10.47
2018-10-07T00:39:56.088Z,11.73
2018-10-07T00:42:30.386Z,11.20
2018-10-07T00:45:05.333Z,11.73
2018-10-07T00:47:39.787Z,13.33
2018-10-07T00:50:13.949Z,12.43
2018-10-07T00:52:48.117Z,12.93
2018-10-07T00:55:22.144Z,12.03
2018-10-07T00:57:56.397Z,13.10
2018-10-07T01:00:30.285Z,13.00
2018-10-07T01:03:05.447Z,13.53
2018-10-07T01:05:40.347Z,12.27
2018-10-07T01:08:14.322Z,12.17
2018-10-07T01:10:48.637Z,11.83
2018-10-07T01:13:22.692Z,16.80
2018-10-07T01:15:56.683Z,15.03
2018-10-07T01:18:31.058Z,15.53
2018-10-07T01:21:05.411Z,16.73
2018-10-07T01:23:39.437Z,16.50
2018-10-07T01:26:13.531Z,18.27
2018-10-07T01:28:47.927Z,21.47
2018-10-07T01:31:22.353Z,22.37
2018-10-07T01:33:57.321Z,23.33
2018-10-07T01:36:31.597Z,23.20
2018-10-07T01:39:08.603Z,25.30
2018-10-07T01:41:42.948Z,22.77
2018-10-07T01:44:17.097Z,22.37
2018-10-07T01:46:51.808Z,25.10
2018-10-07T01:49:25.652Z,21.53
2018-10-07T01:51:59.901Z,25.53
2018-10-07T01:54:33.801Z,27.33
2018-10-07T01:57:08.647Z,25.97
2018-10-07T01:59:42.711Z,24.97
2018-10-07T02:02:16.895Z,26.83
2018-10-07T02:04:51.239Z,25.70
2018-10-07T02:07:25.204Z,26.37
2018-10-07T02:09:59.028Z,27.53
2018-10-07T02:12:33.126Z,25.83
2018-10-07T02:15:07.106Z,31.60
2018-10-07T02:17:41.421Z,31.97
2018-10-07T02:20:15.407Z,29.23
2018-10-07T02:22:49.532Z,38.43
2018-10-07T02:25:23.476Z,40.80
2018-10-07T02:27:57.806Z,45.80
2018-10-07T02:30:32.133Z,51.87
2018-10-07T02:33:07.140Z,51.70
2018-10-07T02:35:41.925Z,52.80
2018-10-07T02:38:16.344Z,62.03
2018-10-07T02:40:50.547Z,62.23
2018-10-07T02:43:24.956Z,69.07
2018-10-07T02:45:58.682Z,65.27
2018-10-07T02:48:32.861Z,62.50
2018-10-07T02:51:07.192Z,66.90
2018-10-07T02:53:41.947Z,72.57
2018-10-07T02:56:16.436Z,62.63
2018-10-07T02:58:51.527Z,76.50
2018-10-07T03:01:25.642Z,84.50
2018-10-07T03:04:00.053Z,74.80
2018-10-07T03:06:34.185Z,66.47
2018-10-07T03:09:09.538Z,83.33
2018-10-07T03:11:43.511Z,73.93
2018-10-07T03:14:17.352Z,69.63
2018-10-07T03:16:51.911Z,77.67
2018-10-07T03:19:26.632Z,77.83
2018-10-07T03:22:01.026Z,74.03
2018-10-07T03:24:35.116Z,79.50
2018-10-07T03:27:10.490Z,70.47
2018-10-07T03:29:45.283Z,67.70
2018-10-07T03:32:19.806Z,76.47
2018-10-07T03:34:54.519Z,71.90
2018-10-07T03:37:29.013Z,76.30
2018-10-07T03:40:03.266Z,81.87
2018-10-07T03:42:37.247Z,81.40
2018-10-07T03:45:11.411Z,80.43
2018-10-07T03:47:48.845Z,76.23
2018-10-07T03:50:23.293Z,78.00
2018-10-07T03:52:57.439Z,84.90
2018-10-07T03:55:31.532Z,74.90
2018-10-07T03:58:05.795Z,82.57
2018-10-07T04:00:39.949Z,77.83
2018-10-07T04:03:13.933Z,71.27
2018-10-07T04:05:48.133Z,61.53
2018-10-07T04:08:22.178Z,46.73
2018-10-07T04:10:57.118Z,35.63
2018-10-07T04:13:31.718Z,29.97
2018-10-07T04:16:06.487Z,25.87
2018-10-07T04:18:41.135Z,20.07
2018-10-07T04:21:19.832Z,16.27
2018-10-07T04:23:54.584Z,13.33
2018-10-07T04:26:28.423Z,12.23
2018-10-07T04:29:02.993Z,10.30
2018-10-07T04:31:37.279Z,10.63
2018-10-07T04:34:11.367Z,11.27
2018-10-07T04:36:45.828Z,11.23
2018-10-07T04:39:20.211Z,10.83
2018-10-07T04:41:54.458Z,11.67
2018-10-07T04:44:29.348Z,11.93
2018-10-07T04:47:03.562Z,12.40
2018-10-07T04:49:37.488Z,14.60
2018-10-07T04:52:11.588Z,13.23
2018-10-07T04:54:45.600Z,13.47
2018-10-07T04:57:20.247Z,14.93
2018-10-07T04:59:54.743Z,14.33
2018-10-07T05:02:28.693Z,15.13
2018-10-07T05:05:03.053Z,10.90
2018-10-07T05:07:37.548Z,17.53
2018-10-07T05:11:00.829Z,13.43
2018-10-07T05:13:46.457Z,12.97
2018-10-07T05:16:28.342Z,13.77
2018-10-07T05:19:02.452Z,13.47
2018-10-07T05:21:36.696Z,13.27
2018-10-07T05:24:10.875Z,13.03
2018-10-07T05:26:45.102Z,11.97
2018-10-07T05:29:19.318Z,13.23
2018-10-07T05:31:53.261Z,11.57
2018-10-07T05:34:27.916Z,14.23
2018-10-07T05:37:02.878Z,14.83
2018-10-07T05:39:36.999Z,14.33
2018-10-07T05:42:10.983Z,13.53
2018-10-07T05:44:45.272Z,12.30
2018-10-07T05:47:19.323Z,13.13
2018-10-07T05:49:56.746Z,14.10
2018-10-07T05:52:30.836Z,13.37
2018-10-07T05:55:05.006Z,11.17
2018-10-07T05:57:40.067Z,13.30
2018-10-07T06:00:15.219Z,13.03
2018-10-07T06:02:50.310Z,15.53
2018-10-07T06:05:25.456Z,13.83
2018-10-07T06:08:00.122Z,14.80
2018-10-07T06:10:34.961Z,14.37
2018-10-07T06:13:08.977Z,14.03
2018-10-07T06:15:43.632Z,14.23
2018-10-07T06:18:17.861Z,13.93
2018-10-07T06:20:52.324Z,14.37
2018-10-07T06:23:26.925Z,16.40
2018-10-07T06:26:01.161Z,13.90
2018-10-07T06:28:35.311Z,15.80
2018-10-07T06:31:09.767Z,15.43
2018-10-07T06:33:43.937Z,14.50
2018-10-07T06:36:17.857Z,12.17
2018-10-07T06:38:52.612Z,13.60
2018-10-07T06:41:27.405Z,13.83
2018-10-07T06:44:01.431Z,12.03
2018-10-07T06:46:35.621Z,12.17
2018-10-07T06:49:10.015Z,11.17
2018-10-07T06:51:44.047Z,11.10
2018-10-07T06:54:17.881Z,7.57
2018-10-07T06:56:52.370Z,11.80
2018-10-07T06:59:26.727Z,7.00
2018-10-07T07:02:00.968Z,7.20
2018-10-07T07:04:35.463Z,6.77
2018-10-07T07:07:10.343Z,6.93
2018-10-07T07:09:44.241Z,5.37
2018-10-07T07:12:18.511Z,4.83
2018-10-07T07:14:53.436Z,3.90
2018-10-07T07:17:27.632Z,4.87
2018-10-07T07:20:01.838Z,5.40
2018-10-07T07:22:42.957Z,6.17
2018-10-07T07:25:17.366Z,3.67
2018-10-07T07:27:51.217Z,4.00
2018-10-07T07:30:25.284Z,4.60
2018-10-07T07:32:59.737Z,3.83
2018-10-07T07:35:33.778Z,3.63
2018-10-07T07:38:08.083Z,2.60
2018-10-07T07:40:42.403Z,2.47
2018-10-07T07:43:16.461Z,2.20
2018-10-07T07:45:50.512Z,4.73
2018-10-07T07:48:24.893Z,3.00
2018-10-07T07:50:59.052Z,3.10
2018-10-07T07:53:33.811Z,2.30
2018-10-07T07:56:08.467Z,3.43
2018-10-07T07:58:42.502Z,3.03
2018-10-07T08:01:16.849Z,2.20
2018-10-07T08:03:50.902Z,1.80
2018-10-07T08:06:24.798Z,2.27
2018-10-07T08:08:59.402Z,1.73
2018-10-07T08:11:34.539Z,1.87
2018-10-07T08:14:08.549Z,3.67
2018-10-07T08:16:43.882Z,4.83
2018-10-07T08:19:17.833Z,1.67
2018-10-07T08:21:52.038Z,2.20
2018-10-07T08:24:26.196Z,1.70
2018-10-07T08:27:00.753Z,1.70
2018-10-07T08:29:35.104Z,2.67
2018-10-07T08:32:09.680Z,1.40
2018-10-07T08:34:44.072Z,1.70
2018-10-07T08:37:18.325Z,2.90
2018-10-07T08:39:52.724Z,2.70
2018-10-07T08:42:26.631Z,1.57
2018-10-07T08:45:01.252Z,2.40
2018-10-07T08:47:35.913Z,1.93
2018-10-07T08:50:10.363Z,1.53
2018-10-07T08:52:49.386Z,1.77
2018-10-07T08:55:23.392Z,2.57
2018-10-07T08:57:57.988Z,1.87
2018-10-07T09:00:32.427Z,2.70
2018-10-07T09:03:06.601Z,1.60
2018-10-07T09:05:41.399Z,1.43
2018-10-07T09:08:15.883Z,1.93
2018-10-07T09:10:50.527Z,1.73
2018-10-07T09:13:24.505Z,2.40
2018-10-07T09:15:59.357Z,2.17
2018-10-07T09:18:33.909Z,2.13
2018-10-07T09:21:08.259Z,1.50
2018-10-07T09:23:42.152Z,1.53
2018-10-07T09:26:16.969Z,2.57
2018-10-07T09:28:51.886Z,1.50
2018-10-07T09:31:26.352Z,1.50
2018-10-07T09:34:00.867Z,1.27
2018-10-07T09:36:41.800Z,1.10
2018-10-07T09:39:16.246Z,1.90
2018-10-07T09:41:50.797Z,1.30
2018-10-07T09:44:25.132Z,1.93
2018-10-07T09:46:59.678Z,4.17
2018-10-07T09:49:33.831Z,1.50
2018-10-07T09:52:08.191Z,0.90
2018-10-07T09:54:42.325Z,1.20
2018-10-07T09:57:16.653Z,1.67
2018-10-07T09:59:50.881Z,1.30
2018-10-07T10:02:26.361Z,1.17
2018-10-07T10:05:00.416Z,0.90
2018-10-07T10:07:34.476Z,1.20
2018-10-07T10:10:09.021Z,1.57
2018-10-07T10:12:44.014Z,1.13
2018-10-07T10:15:18.447Z,1.40
2018-10-07T10:18:01.421Z,1.57
2018-10-07T10:20:59.551Z,1.77
2018-10-07T10:24:44.296Z,1.93
2018-10-07T10:27:31.039Z,1.13
2018-10-07T10:31:12.726Z,0.77
2018-10-07T10:34:01.486Z,0.97
2018-10-07T10:36:38.136Z,1.37
2018-10-07T10:40:20.077Z,0.80
2018-10-07T10:43:07.238Z,0.80
2018-10-07T10:45:53.797Z,1.10
2018-10-07T10:48:34.142Z,0.90
2018-10-07T10:52:20.548Z,1.20
2018-10-07T10:55:00.756Z,1.10
2018-10-07T10:57:45.766Z,2.20
2018-10-07T11:00:23.974Z,0.50
2018-10-07T11:03:12.453Z,0.90
2018-10-07T11:05:57.631Z,0.83
2018-10-07T11:09:40.215Z,0.77
2018-10-07T11:12:41.346Z,2.07
2018-10-07T11:16:00.450Z,1.07
2018-10-07T11:18:44.243Z,1.07
2018-10-07T11:21:46.333Z,2.53
2018-10-07T11:25:31.944Z,0.83
2018-10-07T11:28:10.812Z,0.77
2018-10-07T11:31:07.056Z,1.90
2018-10-07T11:33:55.348Z,0.63
2018-10-07T11:36:43.985Z,0.67
2018-10-07T11:39:30.812Z,1.67
2018-10-07T11:42:10.756Z,1.57
2018-10-07T11:44:54.364Z,0.90
2018-10-07T11:56:32.966Z,0.50
2018-10-07T11:59:07.357Z,0.50
2018-10-07T12:01:41.672Z,1.93
2018-10-07T12:04:16.091Z,0.70
2018-10-07T12:06:50.470Z,0.50
2018-10-07T12:09:24.906Z,0.45
2018-10-07T12:11:59.973Z,0.63
2018-10-07T12:14:34.244Z,0.60
2018-10-07T12:17:09.020Z,0.95
2018-10-07T12:19:43.252Z,1.02
2018-10-07T12:22:17.507Z,2.02
2018-10-07T12:24:52.005Z,0.73
2018-10-07T12:27:26.228Z,0.87
2018-10-07T12:30:01.297Z,0.50
2018-10-07T12:32:36.128Z,0.72
2018-10-07T12:35:11.187Z,0.60
2018-10-07T12:37:45.275Z,2.05
2018-10-07T12:40:19.816Z,0.93
2018-10-07T12:43:00.955Z,0.50
2018-10-07T12:45:35.350Z,0.88
2018-10-07T12:48:09.576Z,0.75
2018-10-07T12:50:43.979Z,1.05
2018-10-07T12:53:18.416Z,0.40
2018-10-07T12:55:53.903Z,1.67
2018-10-07T12:58:28.157Z,1.27
2018-10-07T13:01:02.778Z,1.10
2018-10-07T13:03:37.107Z,2.17
2018-10-07T13:06:12.166Z,0.93
2018-10-07T13:08:47.044Z,2.70
2018-10-07T13:11:22.228Z,1.27
2018-10-07T13:13:57.341Z,1.02
2018-10-07T13:16:31.564Z,1.02
2018-10-07T13:19:06.338Z,1.15
2018-10-07T13:21:41.281Z,1.85
2018-10-07T13:24:15.438Z,1.85
2018-10-07T13:26:49.951Z,1.20
2018-10-07T13:29:24.224Z,2.08
2018-10-07T13:31:58.457Z,1.25
2018-10-07T13:34:33.180Z,0.93
2018-10-07T13:37:07.430Z,1.62
2018-10-07T13:39:41.876Z,2.72
2018-10-07T13:42:16.234Z,0.93
2018-10-07T13:44:50.380Z,1.67
2018-10-07T13:47:24.452Z,0.98
2018-10-07T13:49:58.450Z,3.40
2018-10-07T13:52:32.919Z,0.95
2018-10-07T13:55:07.145Z,1.55
2018-10-07T13:57:41.808Z,1.55
2018-10-07T14:00:15.915Z,1.07
2018-10-07T14:02:50.482Z,1.42
2018-10-07T14:05:25.399Z,0.90
2018-10-07T14:08:00.254Z,2.30
2018-10-07T14:10:35.118Z,1.02
2018-10-07T14:13:09.132Z,0.95
2018-10-07T14:15:43.358Z,1.10
2018-10-07T14:18:17.546Z,1.02
2018-10-07T14:20:51.943Z,1.27
2018-10-07T14:23:26.152Z,6.37
2018-10-07T14:26:00.194Z,0.95
2018-10-07T14:28:34.198Z,1.42
2018-10-07T14:31:09.113Z,0.72
2018-10-07T14:33:43.485Z,1.05
2018-10-07T14:36:17.522Z,1.67
2018-10-07T14:38:52.164Z,1.00
2018-10-07T14:41:26.704Z,1.07
2018-10-07T14:44:01.612Z,0.90
2018-10-07T14:46:35.594Z,2.55
2018-10-07T14:49:10.395Z,2.17
2018-10-07T14:51:45.937Z,1.27
2018-10-07T14:54:20.445Z,1.57
2018-10-07T14:56:55.522Z,0.93
2018-10-07T14:59:30.800Z,1.12
2018-10-07T15:02:05.955Z,1.25
2018-10-07T15:04:40.041Z,1.30
2018-10-07T15:07:14.449Z,1.02
2018-10-07T15:09:48.797Z,1.12
2018-10-07T15:12:23.494Z,1.17
2018-10-07T15:14:57.856Z,2.27
2018-10-07T15:17:32.574Z,0.90
2018-10-07T15:20:07.282Z,1.70
2018-10-07T15:22:42.919Z,1.37
2018-10-07T15:25:17.225Z,1.27
2018-10-07T15:27:51.639Z,1.98
2018-10-07T15:30:25.961Z,1.90
2018-10-07T15:33:00.034Z,2.30
2018-10-07T15:35:34.460Z,2.42
2018-10-07T15:38:08.540Z,2.35
2018-10-07T15:40:42.613Z,2.00
2018-10-07T15:43:17.009Z,2.12
2018-10-07T15:45:51.189Z,1.45
2018-10-07T15:48:26.360Z,3.25
2018-10-07T15:51:02.307Z,1.37
2018-10-07T15:53:36.749Z,1.40
2018-10-07T15:56:11.200Z,2.05
2018-10-07T15:58:45.858Z,2.20
2018-10-07T16:01:20.352Z,1.70
2018-10-07T16:03:54.780Z,1.93
2018-10-07T16:06:30.054Z,1.83
2018-10-07T16:09:06.936Z,1.17
2018-10-07T16:11:41.205Z,1.47
2018-10-07T16:14:15.609Z,2.20
2018-10-07T16:16:50.488Z,4.43
2018-10-07T16:19:24.730Z,1.57
2018-10-07T16:21:59.437Z,1.97
2018-10-07T16:24:33.746Z,3.00
2018-10-07T16:27:08.070Z,2.47
2018-10-07T16:29:42.826Z,3.23
2018-10-07T16:32:17.189Z,3.80
2018-10-07T16:34:52.239Z,3.07
2018-10-07T16:37:26.882Z,3.30
2018-10-07T16:40:00.816Z,2.53
2018-10-07T16:42:35.224Z,1.97
2018-10-07T16:45:10.322Z,2.47
2018-10-07T16:47:44.742Z,2.50
2018-10-07T16:50:19.280Z,2.37
2018-10-07T16:52:54.681Z,3.60
2018-10-07T16:55:29.132Z,2.27
2018-10-07T16:58:03.222Z,5.20
2018-10-07T17:00:37.635Z,1.60
2018-10-07T17:03:12.002Z,4.27
2018-10-07T17:05:46.301Z,3.83
2018-10-07T17:08:21.376Z,4.27
2018-10-07T17:10:55.496Z,3.37
2018-10-07T17:13:30.269Z,2.60
2018-10-07T17:16:04.508Z,3.77
2018-10-07T17:18:39.366Z,3.57
2018-10-07T17:21:13.613Z,1.80
2018-10-07T17:23:47.979Z,3.80
2018-10-07T17:26:22.819Z,31.40
2018-10-07T17:28:56.859Z,63.80
2018-10-07T17:31:31.405Z,58.93
2018-10-07T17:34:06.814Z,48.53
2018-10-07T17:36:41.133Z,23.50
2018-10-07T17:39:15.950Z,20.03
2018-10-07T17:41:50.994Z,10.80
2018-10-07T17:44:25.411Z,10.40
2018-10-07T17:46:59.505Z,6.30
2018-10-07T17:49:34.055Z,5.90
2018-10-07T17:52:08.355Z,11.90
2018-10-07T17:54:42.918Z,13.80
2018-10-07T17:57:17.223Z,8.53
2018-10-07T17:59:52.081Z,8.03
2018-10-07T18:02:26.445Z,5.83
2018-10-07T18:05:01.113Z,6.73
2018-10-07T18:07:35.591Z,6.37
2018-10-07T18:10:10.245Z,4.83
2018-10-07T18:13:00.011Z,5.77
2018-10-07T18:15:34.717Z,4.77
2018-10-07T18:18:09.172Z,4.97
2018-10-07T18:20:44.285Z,5.07
2018-10-07T18:23:18.587Z,6.27
2018-10-07T18:25:53.134Z,3.10
2018-10-07T18:28:36.411Z,4.07
2018-10-07T18:31:11.190Z,3.53
2018-10-07T18:33:45.464Z,3.07
2018-10-07T18:36:19.407Z,2.77
2018-10-07T18:38:54.396Z,4.53
2018-10-07T18:41:28.980Z,5.17
2018-10-07T18:44:03.972Z,5.67
2018-10-07T18:46:38.011Z,5.13
2018-10-07T18:49:12.593Z,3.00
2018-10-07T18:51:46.971Z,4.93
2018-10-07T18:54:21.414Z,5.37
2018-10-07T18:56:56.315Z,6.77
2018-10-07T18:59:31.315Z,6.63
2018-10-07T19:02:05.698Z,5.00
2018-10-07T19:04:40.037Z,4.90
2018-10-07T19:07:15.001Z,5.03
2018-10-07T19:12:29.920Z,4.40
2018-10-07T19:15:04.695Z,3.33
2018-10-07T19:17:39.532Z,3.67
2018-10-07T19:20:14.141Z,4.90
2018-10-07T19:22:48.657Z,7.00
2018-10-07T19:25:23.022Z,4.13
2018-10-07T19:27:57.800Z,4.73
2018-10-07T19:30:32.297Z,4.50
2018-10-07T19:33:07.564Z,4.13
2018-10-07T19:35:42.132Z,4.57
2018-10-07T19:38:16.355Z,6.83
2018-10-07T19:40:50.800Z,4.73
2018-10-07T19:43:25.046Z,3.47
2018-10-07T19:45:59.427Z,6.10
2018-10-07T19:48:48.504Z,4.23
2018-10-07T19:51:39.511Z,4.00
2018-10-07T19:54:13.885Z,4.30
2018-10-07T19:56:48.564Z,4.80
2018-10-07T19:59:23.525Z,5.47
2018-10-07T20:01:57.542Z,4.13
2018-10-07T20:04:31.587Z,4.67
2018-10-07T20:07:06.665Z,5.77
2018-10-07T20:09:41.911Z,4.27
2018-10-07T20:12:16.707Z,4.93
2018-10-07T20:14:51.575Z,6.60
2018-10-07T20:17:27.168Z,5.20
2018-10-07T20:20:02.104Z,4.80
2018-10-07T20:22:37.534Z,4.63
2018-10-07T20:25:12.941Z,4.83
2018-10-07T20:27:48.214Z,6.70
2018-10-07T20:30:23.740Z,5.90
2018-10-07T20:32:58.541Z,5.40
2018-10-07T20:35:33.903Z,5.10
2018-10-07T20:38:09.737Z,5.53
2018-10-07T20:40:44.638Z,5.37
2018-10-07T20:43:19.550Z,6.10
2018-10-07T20:45:53.889Z,6.30
2018-10-07T20:48:28.785Z,8.53
2018-10-07T20:51:02.916Z,11.97
2018-10-07T20:53:37.755Z,10.00
2018-10-07T20:56:12.395Z,13.80
2018-10-07T20:58:46.781Z,7.87
2018-10-07T21:01:21.264Z,8.33
2018-10-07T21:03:55.454Z,6.17
2018-10-07T21:06:29.499Z,6.50
2018-10-07T21:09:06.041Z,5.60
2018-10-07T21:11:40.233Z,7.00
2018-10-07T21:14:14.684Z,9.67
2018-10-07T21:16:49.011Z,7.00
2018-10-07T21:19:23.464Z,9.20
2018-10-07T21:22:04.200Z,7.97
2018-10-07T21:24:38.950Z,8.73
2018-10-07T21:27:13.087Z,10.17
2018-10-07T21:29:47.472Z,7.43
2018-10-07T21:32:21.814Z,14.40
2018-10-07T21:34:55.932Z,10.60
2018-10-07T21:37:30.346Z,8.37
2018-10-07T21:40:04.484Z,14.53
2018-10-07T21:42:39.685Z,9.03
2018-10-07T21:45:13.931Z,11.13
2018-10-07T21:47:48.627Z,11.07
2018-10-07T21:50:22.970Z,7.87
2018-10-07T21:52:57.120Z,8.17
2018-10-07T21:55:31.189Z,7.60
2018-10-07T21:58:06.361Z,8.10
2018-10-07T22:00:40.674Z,6.73
2018-10-07T22:03:14.524Z,6.90
2018-10-07T22:05:48.650Z,6.27
2018-10-07T22:08:22.814Z,4.77
2018-10-07T22:10:56.917Z,6.10
2018-10-07T22:13:31.144Z,5.07
2018-10-07T22:16:06.670Z,4.73
2018-10-07T22:18:41.034Z,6.33
2018-10-07T22:21:15.509Z,6.07
2018-10-07T22:23:49.669Z,7.03
2018-10-07T22:26:24.359Z,9.43
2018-10-07T22:28:59.030Z,7.83
2018-10-07T22:31:32.974Z,9.47
2018-10-07T22:34:08.088Z,7.40
2018-10-07T22:36:42.351Z,6.20
2018-10-07T22:39:17.498Z,6.27
2018-10-07T22:41:52.456Z,10.47
2018-10-07T22:44:27.500Z,19.73
2018-10-07T22:47:01.583Z,10.17
2018-10-07T22:49:35.896Z,8.07
2018-10-07T22:52:10.089Z,6.23
2018-10-07T22:54:44.448Z,6.50
2018-10-07T22:57:19.004Z,7.23
2018-10-07T22:59:53.259Z,5.77
2018-10-07T23:02:28.273Z,9.03
2018-10-07T23:05:02.698Z,5.57
2018-10-07T23:07:36.769Z,5.27
2018-10-07T23:10:10.820Z,7.30
2018-10-07T23:12:45.670Z,6.57
2018-10-07T23:15:20.104Z,5.30
2018-10-07T23:17:54.425Z,5.20
2018-10-07T23:20:28.672Z,5.37
2018-10-07T23:23:02.705Z,6.83
2018-10-07T23:25:38.080Z,4.87
2018-10-07T23:28:12.160Z,5.53
2018-10-07T23:30:46.386Z,7.33
2018-10-07T23:33:20.613Z,8.70
2018-10-07T23:35:54.654Z,5.47
2018-10-07T23:38:28.835Z,5.17
2018-10-07T23:41:03.305Z,9.00
2018-10-07T23:43:37.784Z,3.53
2018-10-07T23:46:11.819Z,4.83
2018-10-07T23:48:45.981Z,3.63
2018-10-07T23:51:20.204Z,3.40
2018-10-07T23:53:54.416Z,3.57
2018-10-07T23:56:28.945Z,6.03
2018-10-07T23:59:03.235Z,3.17
